New Bern, NC (28560)

2:58 AM EDT on March 28, 2017 (GMT -0400)
Bridgeton | | Change Station

Elev 0 ft 35.13 °N, 77.03 °W | Updated 5 seconds ago

Overcast
Overcast
64.0 °F
Feels Like 64.0 °F
N
9.2
Wind Variable Wind from SE
Gusts 9.8 mph

Today
High -- | Low -- °F
--% Chance of Precip.
Yesterday
High -- | Low -- °F
Precip. -- in
Pressure 29.99 in
Visibility 10.0 miles
Clouds Overcast 11000 ft
Dew Point 59 °F
Humidity 83%
Rainfall 0.00 in
Snow Depth Not available.
7:00 AM 7:26 PM
New Moon, 0% visible
METAR KEWN 280654Z AUTO 17006KT 10SM OVC110 17/14 A2999 RMK AO2 SLP155 T01670144
Pressure 29.99 in
Visibility 10.0 miles
Clouds Overcast 11000 ft
Dew Point 59 °F
Humidity 83%
Rainfall 0.00 in
Snow Depth Not available.
7:00 AM 7:26 PM
New Moon, 0% visible
METAR KEWN 280654Z AUTO 17006KT 10SM OVC110 17/14 A2999 RMK AO2 SLP155 T01670144

Get Severe Weather Alerts

Thanks for signing up!

Be on the lookout for a verification email in your inbox.

You'll start receiving the daily forecast at 8 AM.

×

10-Day Weather Forecast

Almanac

Astronomy

Mar. 28, 2017 Rise Set
Actual Time
Civil Twilight
Nautical Twilight
Astronomical Twilight
Moon
Length of Visible Light
Length of Day
Tomorrow will be .
, % of the Moon is Illuminated

Today's Extremes

State Highs State Lows

Community

WunderPhotos

Upload Photos

1,962,540 photos uploaded!

WunderBlog® & News

Nearby

Air Quality

  Air Quality AQ Index Pollutant
Not available.

Snow Depth

Station Depth Elevation

Earthquake Activity

City Distance Mag. Time & Date
Minimum magnitude displayed is 2.5.

Earthquake Activity

City Distance Mag. Time & Date
Minimum magnitude displayed is 2.5.

Coastal Water Temperatures

Place Temperature

Stations

Nearby Weather Stations

Station Location Temp. Windchill Dew Point Humidity Wind Precip. Elev Updated Type
                   

Watches & Warnings

There are currently no watches in effect.